Time;durP1;ratioP1;P1;durP2;ratioP2;P2;SDS_P1;SDS_P2;PMS_P1;PMS_P2;Temp;Humidity;BMP_temperature;BMP_pressure;BME280_temperature;BME280_humidity;BME280_pressure;Samples;Min_cycle;Max_cycle;Signal;HPM_P1;HPM_P2
2023/10/15 00:00:47;;;;;;;3.58;1.70;;;;;;;;;;10332711;28;20042;-70
2023/10/15 00:05:49;;;;;;;;;;;;;;;;;;10332814;28;20081;-73
2023/10/15 00:10:52;;;;;;;4.95;1.77;;;;;;;;;;10334421;28;19933;-72
2023/10/15 00:15:57;;;;;;;5.70;1.85;;;;;;;;;;10339556;28;20049;-71
2023/10/15 00:21:11;;;;;;;4.22;1.75;;;;;;;;;;10331408;28;20065;-71
2023/10/15 00:26:15;;;;;;;5.03;1.80;;;;;;;;;;10331168;28;20049;-71
2023/10/15 00:31:19;;;;;;;4.07;1.77;;;;;;;;;;10330762;28;20046;-72
2023/10/15 00:36:23;;;;;;;;;;;;;;;;;;10332768;28;20069;-71
2023/10/15 00:41:25;;;;;;;6.13;1.90;;;;;;;;;;10329115;28;20445;-71
2023/10/15 00:46:30;;;;;;;6.47;1.75;;;;;;;;;;10333166;28;20135;-71
2023/10/15 00:51:33;;;;;;;7.63;2.00;;;;;;;;;;10332096;28;20075;-72
2023/10/15 00:56:36;;;;;;;2.83;1.58;;;;;;;;;;10329404;28;20503;-73
2023/10/15 01:01:48;;;;;;;6.88;1.98;;;;;;;;;;10330394;28;20495;-72
2023/10/15 01:06:51;;;;;;;4.00;1.13;;;;;;;;;;10329421;28;20045;-72
2023/10/15 01:11:56;;;;;;;4.00;1.47;;;;;;;;;;10330379;28;20049;-72
2023/10/15 01:17:01;;;;;;;5.30;1.70;;;;;;;;;;10334425;28;20132;-71
2023/10/15 01:22:08;;;;;;;4.47;1.30;;;;;;;;;;10329884;28;20065;-71
2023/10/15 01:27:13;;;;;;;2.35;1.10;;;;;;;;;;10327578;28;20054;-71
2023/10/15 01:32:18;;;;;;;5.88;1.75;;;;;;;;;;10330107;28;20060;-72
2023/10/15 01:37:24;;;;;;;4.57;1.75;;;;;;;;;;10331264;28;20053;-71
2023/10/15 01:42:40;;;;;;;4.78;1.75;;;;;;;;;;10329597;28;20391;-70
2023/10/15 01:48:01;;;;;;;7.85;1.75;;;;;;;;;;10330214;28;20204;-71
2023/10/15 01:53:04;;;;;;;6.25;1.75;;;;;;;;;;10330639;28;20495;-73
2023/10/15 01:58:12;;;;;;;4.40;1.30;;;;;;;;;;10329337;28;20046;-71
2023/10/15 02:03:14;;;;;;;8.38;1.63;;;;;;;;;;10331209;28;20085;-71
2023/10/15 02:08:23;;;;;;;5.80;1.98;;;;;;;;;;10327720;28;20043;-71
2023/10/15 02:13:30;;;;;;;5.32;1.58;;;;;;;;;;10336031;28;20108;-72
2023/10/15 02:18:33;;;;;;;3.63;1.40;;;;;;;;;;10329533;28;20065;-71
2023/10/15 02:23:36;;;;;;;4.13;1.45;;;;;;;;;;10327860;28;20121;-70
2023/10/15 02:28:40;;;;;;;8.27;1.90;;;;;;;;;;10330097;28;20046;-71
2023/10/15 02:33:43;;;;;;;6.10;1.50;;;;;;;;;;10325360;28;20046;-72
2023/10/15 02:38:56;;;;;;;6.07;1.52;;;;;;;;;;10328752;28;20380;-70
2023/10/15 02:44:00;;;;;;;8.00;1.65;;;;;;;;;;10329656;28;20037;-71
2023/10/15 02:49:06;;;;;;;;;;;;;;;;;;10327566;28;20057;-71
2023/10/15 02:54:24;;;;;;;4.25;1.27;;;;;;;;;;10327996;28;19977;-71
2023/10/15 02:59:31;;;;;;;4.22;1.42;;;;;;;;;;10327418;28;20038;-70
2023/10/15 03:04:34;;;;;;;3.65;1.35;;;;;;;;;;10327940;28;20200;-71
2023/10/15 03:09:36;;;;;;;3.30;0.90;;;;;;;;;;10329947;28;20229;-72
2023/10/15 03:14:41;;;;;;;2.35;1.00;;;;;;;;;;10342950;28;20491;-72
2023/10/15 03:19:43;;;;;;;6.85;1.52;;;;;;;;;;10337729;28;20499;-70
2023/10/15 03:24:46;;;;;;;2.47;1.60;;;;;;;;;;10333336;28;20049;-71
2023/10/15 03:29:56;;;;;;;5.50;1.40;;;;;;;;;;10335268;28;20522;-71
2023/10/15 03:35:05;;;;;;;7.32;1.65;;;;;;;;;;10337753;28;20125;-71
2023/10/15 03:40:13;;;;;;;5.88;1.83;;;;;;;;;;10331366;28;20786;-71
2023/10/15 03:45:26;;;;;;;4.90;1.60;;;;;;;;;;10339317;28;20047;-74
2023/10/15 03:50:29;;;;;;;2.30;1.20;;;;;;;;;;10336213;28;20059;-70
2023/10/15 03:55:32;;;;;;;6.15;1.42;;;;;;;;;;10333131;28;20156;-72
2023/10/15 04:00:46;;;;;;;4.57;1.55;;;;;;;;;;10335049;28;20557;-71
2023/10/15 04:05:52;;;;;;;3.75;1.23;;;;;;;;;;10333392;28;20053;-70
2023/10/15 04:10:56;;;;;;;3.28;1.35;;;;;;;;;;10338624;28;20045;-70
2023/10/15 04:16:00;;;;;;;5.80;1.10;;;;;;;;;;10331786;28;20042;-70
2023/10/15 04:21:03;;;;;;;3.33;1.15;;;;;;;;;;10332087;28;20056;-70
2023/10/15 04:26:11;;;;;;;5.57;1.30;;;;;;;;;;10331634;28;20175;-70
2023/10/15 04:31:22;;;;;;;2.85;1.30;;;;;;;;;;10332339;28;20183;-70
2023/10/15 04:36:25;;;;;;;4.75;1.17;;;;;;;;;;10332752;28;20046;-70
2023/10/15 04:41:33;;;;;;;5.43;1.13;;;;;;;;;;10332257;28;20045;-70
2023/10/15 04:46:41;;;;;;;3.25;1.00;;;;;;;;;;10335531;28;20392;-70
2023/10/15 04:51:44;;;;;;;6.03;1.80;;;;;;;;;;10333326;28;20053;-69
2023/10/15 04:56:47;;;;;;;3.95;1.25;;;;;;;;;;10347440;28;20046;-69
2023/10/15 05:01:52;;;;;;;6.33;1.43;;;;;;;;;;10361932;28;20054;-69
2023/10/15 05:06:55;;;;;;;;;;;;;;;;;;10354133;28;20479;-70
2023/10/15 05:11:58;;;;;;;3.95;1.50;;;;;;;;;;10362256;28;19928;-69
2023/10/15 05:17:02;;;;;;;4.70;1.40;;;;;;;;;;10360476;28;20446;-70
2023/10/15 05:22:05;;;;;;;;;;;;;;;;;;10357447;28;20097;-69
2023/10/15 05:27:10;;;;;;;5.53;1.60;;;;;;;;;;10366302;28;19932;-70
2023/10/15 05:32:14;;;;;;;5.85;1.50;;;;;;;;;;10361736;28;20487;-71
2023/10/15 05:37:17;;;;;;;;;;;;;;;;;;10358257;28;20057;-71
2023/10/15 05:42:19;;;;;;;6.55;1.30;;;;;;;;;;10363496;28;19920;-69
2023/10/15 05:47:24;;;;;;;3.13;1.10;;;;;;;;;;10358807;28;20045;-70
2023/10/15 05:52:28;;;;;;;3.28;1.27;;;;;;;;;;10360491;28;20049;-70
2023/10/15 05:57:31;;;;;;;4.32;1.38;;;;;;;;;;10365555;28;20495;-72
2023/10/15 06:02:35;;;;;;;6.53;1.40;;;;;;;;;;10358103;28;20052;-68
2023/10/15 06:07:37;;;;;;;4.32;1.42;;;;;;;;;;10355109;28;20034;-69
2023/10/15 06:12:40;;;;;;;2.45;1.08;;;;;;;;;;10359567;28;20050;-70
2023/10/15 06:17:46;;;;;;;3.20;1.15;;;;;;;;;;10361386;28;20475;-71
2023/10/15 06:22:55;;;;;;;1.70;0.77;;;;;;;;;;10356835;28;20375;-70
2023/10/15 06:27:58;;;;;;;5.75;1.48;;;;;;;;;;10361621;28;20564;-70
2023/10/15 06:33:02;;;;;;;4.25;1.55;;;;;;;;;;10356648;28;20100;-71
2023/10/15 06:38:05;;;;;;;6.18;1.65;;;;;;;;;;10358387;28;20414;-70
2023/10/15 06:43:08;;;;;;;4.00;1.10;;;;;;;;;;10360123;28;20051;-69
2023/10/15 06:48:12;;;;;;;6.20;1.48;;;;;;;;;;10368510;28;20053;-70
2023/10/15 06:53:14;;;;;;;;;;;;;;;;;;10365517;28;20116;-68
2023/10/15 06:58:17;;;;;;;3.30;1.02;;;;;;;;;;10366838;28;20012;-70
2023/10/15 07:03:21;;;;;;;3.10;1.10;;;;;;;;;;10371596;28;20511;-70
2023/10/15 07:08:23;;;;;;;3.75;0.93;;;;;;;;;;10364611;28;20467;-70
2023/10/15 07:13:26;;;;;;;2.70;0.82;;;;;;;;;;10372994;28;20128;-71
2023/10/15 07:18:32;;;;;;;2.75;1.10;;;;;;;;;;10363733;28;20602;-72
2023/10/15 07:23:35;;;;;;;5.00;1.10;;;;;;;;;;10365054;28;20050;-69
2023/10/15 07:28:38;;;;;;;1.98;0.88;;;;;;;;;;10366834;28;20046;-70
2023/10/15 07:33:42;;;;;;;4.18;1.25;;;;;;;;;;10365278;28;20045;-70
2023/10/15 07:38:45;;;;;;;3.22;1.10;;;;;;;;;;10366951;28;20042;-70
2023/10/15 07:43:47;;;;;;;4.47;1.30;;;;;;;;;;10367404;28;20054;-70
2023/10/15 07:48:52;;;;;;;1.45;0.68;;;;;;;;;;10366265;28;20940;-70
2023/10/15 07:53:55;;;;;;;3.22;1.10;;;;;;;;;;10363261;28;20219;-70
2023/10/15 07:58:58;;;;;;;3.83;1.00;;;;;;;;;;10361788;28;20046;-69
2023/10/15 08:04:03;;;;;;;0.53;0.40;;;;;;;;;;10364183;28;20091;-70
2023/10/15 08:09:06;;;;;;;1.52;0.60;;;;;;;;;;10364692;28;20084;-71
2023/10/15 08:14:09;;;;;;;0.93;0.63;;;;;;;;;;10363100;28;20042;-70
2023/10/15 08:19:12;;;;;;;;;;;;;;;;;;10366198;28;20417;-69
2023/10/15 08:24:16;;;;;;;3.85;0.90;;;;;;;;;;10363668;28;20012;-71
2023/10/15 08:29:19;;;;;;;;;;;;;;;;;;10364623;28;20625;-70
2023/10/15 08:34:23;;;;;;;2.43;1.10;;;;;;;;;;10360294;28;19964;-69
2023/10/15 08:39:29;;;;;;;3.88;1.10;;;;;;;;;;10343039;28;20241;-72
2023/10/15 08:44:33;;;;;;;3.15;0.65;;;;;;;;;;10338737;28;20072;-71
2023/10/15 08:49:36;;;;;;;1.88;0.65;;;;;;;;;;10329048;28;20702;-71
2023/10/15 08:54:41;;;;;;;6.07;1.43;;;;;;;;;;10331518;28;20057;-70
2023/10/15 08:59:44;;;;;;;4.32;0.90;;;;;;;;;;10331233;28;20038;-71
2023/10/15 09:04:46;;;;;;;1.75;0.50;;;;;;;;;;10333408;28;20052;-70
2023/10/15 09:09:51;;;;;;;0.65;0.55;;;;;;;;;;10337554;28;20038;-73
2023/10/15 09:14:54;;;;;;;1.33;0.60;;;;;;;;;;10336499;28;20077;-69
2023/10/15 09:19:57;;;;;;;0.50;0.50;;;;;;;;;;10341829;28;20466;-72
2023/10/15 09:25:02;;;;;;;1.30;0.63;;;;;;;;;;10345934;28;20046;-70
2023/10/15 09:30:18;;;;;;;1.13;0.70;;;;;;;;;;10331761;28;20054;-71
2023/10/15 09:35:22;;;;;;;2.28;0.80;;;;;;;;;;10331323;28;20054;-71
2023/10/15 09:40:30;;;;;;;1.95;0.77;;;;;;;;;;10330211;28;20145;-72
2023/10/15 09:45:33;;;;;;;2.33;1.05;;;;;;;;;;10331295;28;20540;-70
2023/10/15 09:50:39;;;;;;;1.75;1.10;;;;;;;;;;10328525;28;20416;-70
2023/10/15 09:55:45;;;;;;;2.35;0.88;;;;;;;;;;10333858;28;20049;-71
2023/10/15 10:00:59;;;;;;;1.85;1.10;;;;;;;;;;10331769;28;20054;-71
2023/10/15 10:06:09;;;;;;;5.13;0.98;;;;;;;;;;10330741;28;20049;-70
2023/10/15 10:11:22;;;;;;;1.75;1.10;;;;;;;;;;10337742;28;20061;-74
2023/10/15 10:16:26;;;;;;;3.33;1.40;;;;;;;;;;10329009;28;20718;-71
2023/10/15 10:21:30;;;;;;;2.88;1.38;;;;;;;;;;10336123;28;20192;-76
2023/10/15 10:26:33;;;;;;;;;;;;;;;;;;10344230;28;20034;-71
2023/10/15 10:31:39;;;;;;;3.03;1.20;;;;;;;;;;10335928;28;19923;-71
2023/10/15 10:36:52;;;;;;;2.05;1.10;;;;;;;;;;10337603;28;20041;-71
2023/10/15 10:41:58;;;;;;;1.83;0.90;;;;;;;;;;10335223;28;20050;-71
2023/10/15 10:47:17;;;;;;;5.07;1.13;;;;;;;;;;10334374;28;20128;-71
2023/10/15 10:52:27;;;;;;;1.70;0.90;;;;;;;;;;10346888;28;20054;-69
2023/10/15 10:57:31;;;;;;;2.80;1.00;;;;;;;;;;10333894;28;20165;-71
2023/10/15 11:02:35;;;;;;;2.25;0.90;;;;;;;;;;10334318;28;20115;-70
2023/10/15 11:07:40;;;;;;;2.88;1.00;;;;;;;;;;10334927;28;20160;-72
2023/10/15 11:12:46;;;;;;;3.58;1.20;;;;;;;;;;10340586;28;20208;-69
2023/10/15 11:17:57;;;;;;;2.90;1.17;;;;;;;;;;10352557;28;20041;-71
2023/10/15 11:23:01;;;;;;;3.70;1.33;;;;;;;;;;10364030;28;20049;-69
2023/10/15 11:28:04;;;;;;;;;;;;;;;;;;10366600;28;20041;-69
2023/10/15 11:33:08;;;;;;;5.25;1.33;;;;;;;;;;10358143;28;19921;-70
2023/10/15 11:38:11;;;;;;;2.67;1.20;;;;;;;;;;10359969;28;20590;-71
2023/10/15 11:43:15;;;;;;;3.07;1.47;;;;;;;;;;10362742;28;20038;-69
2023/10/15 11:48:21;;;;;;;2.95;1.10;;;;;;;;;;10364372;28;20308;-69
2023/10/15 11:53:26;;;;;;;3.53;1.00;;;;;;;;;;10362421;28;20406;-69
2023/10/15 11:58:31;;;;;;;;;;;;;;;;;;10363479;28;20046;-70
2023/10/15 12:03:36;;;;;;;3.80;1.00;;;;;;;;;;10363699;28;19933;-69
2023/10/15 12:08:40;;;;;;;2.92;1.13;;;;;;;;;;10356131;28;20052;-69
2023/10/15 12:13:44;;;;;;;2.78;1.10;;;;;;;;;;10363570;28;20427;-69
2023/10/15 12:18:48;;;;;;;2.83;1.48;;;;;;;;;;10362329;28;20125;-69
2023/10/15 12:23:50;;;;;;;;;;;;;;;;;;10357340;28;20181;-70
2023/10/15 12:28:54;;;;;;;4.63;1.58;;;;;;;;;;10365220;28;20056;-70
2023/10/15 12:34:00;;;;;;;1.90;1.30;;;;;;;;;;10364344;28;20092;-73
2023/10/15 12:39:05;;;;;;;7.10;1.55;;;;;;;;;;10362254;28;20050;-69
2023/10/15 12:44:10;;;;;;;2.25;1.33;;;;;;;;;;10362749;28;20064;-70
2023/10/15 12:49:15;;;;;;;1.75;1.42;;;;;;;;;;10362171;28;20201;-70
2023/10/15 12:54:18;;;;;;;4.47;1.45;;;;;;;;;;10356456;28;20041;-70
2023/10/15 12:59:21;;;;;;;;;;;;;;;;;;10361407;28;20078;-69
2023/10/15 13:04:26;;;;;;;3.97;1.48;;;;;;;;;;10349452;28;19921;-70
2023/10/15 13:09:32;;;;;;;5.72;1.20;;;;;;;;;;10337897;28;20481;-71
2023/10/15 13:14:36;;;;;;;4.93;1.88;;;;;;;;;;10331447;28;20544;-69
2023/10/15 13:19:40;;;;;;;3.47;1.50;;;;;;;;;;10336421;28;20046;-69
2023/10/15 13:24:43;;;;;;;;;;;;;;;;;;10326982;28;20037;-71
2023/10/15 13:29:46;;;;;;;3.20;1.00;;;;;;;;;;10359556;28;19925;-70
2023/10/15 13:34:50;;;;;;;4.03;0.90;;;;;;;;;;10327424;28;20061;-69
2023/10/15 13:39:56;;;;;;;3.53;0.98;;;;;;;;;;10331004;28;20049;-70
2023/10/15 13:44:58;;;;;;;4.15;1.10;;;;;;;;;;10329620;28;20049;-71
2023/10/15 13:50:06;;;;;;;1.35;0.93;;;;;;;;;;10329808;28;20485;-69
2023/10/15 13:55:09;;;;;;;2.63;1.05;;;;;;;;;;10326527;28;20491;-70
2023/10/15 14:00:12;;;;;;;2.35;1.08;;;;;;;;;;10331060;28;20443;-71
2023/10/15 14:05:17;;;;;;;3.38;0.95;;;;;;;;;;10330792;28;20042;-71
2023/10/15 14:10:20;;;;;;;2.53;0.80;;;;;;;;;;10331618;28;20057;-69
2023/10/15 14:15:24;;;;;;;2.22;1.05;;;;;;;;;;10328880;28;20345;-68
2023/10/15 14:20:27;;;;;;;;;;;;;;;;;;10331207;28;20077;-69
2023/10/15 14:25:31;;;;;;;4.03;1.17;;;;;;;;;;10330049;28;19926;-70
2023/10/15 14:30:33;;;;;;;;;;;;;;;;;;10329364;28;22027;-71
2023/10/15 14:35:36;;;;;;;1.15;0.60;;;;;;;;;;10328720;28;20014;-70
2023/10/15 14:40:41;;;;;;;1.48;0.95;;;;;;;;;;10328563;28;20133;-71
2023/10/15 14:45:44;;;;;;;2.15;0.98;;;;;;;;;;10328694;28;20042;-72
2023/10/15 14:50:47;;;;;;;4.95;1.00;;;;;;;;;;10331306;28;20345;-70
2023/10/15 14:55:51;;;;;;;4.78;1.20;;;;;;;;;;10326052;28;20050;-69
2023/10/15 15:00:54;;;;;;;2.45;1.27;;;;;;;;;;10327645;28;20502;-69
2023/10/15 15:05:56;;;;;;;3.97;1.17;;;;;;;;;;10332388;28;20495;-70
2023/10/15 15:11:00;;;;;;;3.45;1.27;;;;;;;;;;10336035;28;21710;-68
2023/10/15 15:16:03;;;;;;;;;;;;;;;;;;10339687;28;20633;-68
2023/10/15 15:21:06;;;;;;;2.58;1.30;;;;;;;;;;10334771;28;20123;-70
2023/10/15 15:26:10;;;;;;;1.23;0.85;;;;;;;;;;10336122;28;20046;-69
2023/10/15 15:31:13;;;;;;;2.58;1.25;;;;;;;;;;10336216;28;20049;-70
2023/10/15 15:36:16;;;;;;;5.30;1.37;;;;;;;;;;10333599;28;20053;-73
2023/10/15 15:41:20;;;;;;;5.40;1.48;;;;;;;;;;10332093;28;20064;-71
2023/10/15 15:46:25;;;;;;;3.13;0.90;;;;;;;;;;10337512;28;20743;-71
2023/10/15 15:51:29;;;;;;;4.00;1.23;;;;;;;;;;10334942;28;20099;-71
2023/10/15 15:56:33;;;;;;;3.15;1.10;;;;;;;;;;10336146;28;20045;-68
2023/10/15 16:01:37;;;;;;;2.95;0.80;;;;;;;;;;10331367;28;20050;-69
2023/10/15 16:06:46;;;;;;;2.95;1.17;;;;;;;;;;10330641;28;20049;-73
2023/10/15 16:11:50;;;;;;;2.72;1.10;;;;;;;;;;10344511;28;20077;-69
2023/10/15 16:16:53;;;;;;;3.25;1.00;;;;;;;;;;10349440;28;20062;-70
2023/10/15 16:21:56;;;;;;;2.75;1.20;;;;;;;;;;10339229;28;20129;-70
2023/10/15 16:27:00;;;;;;;2.05;1.00;;;;;;;;;;10333095;28;20057;-70
2023/10/15 16:32:02;;;;;;;;;;;;;;;;;;10345396;28;20069;-69
2023/10/15 16:37:05;;;;;;;2.88;1.10;;;;;;;;;;10333772;28;20523;-70
2023/10/15 16:42:09;;;;;;;3.10;1.08;;;;;;;;;;10335359;28;20046;-70
2023/10/15 16:47:12;;;;;;;4.15;1.30;;;;;;;;;;10331991;28;20038;-70
2023/10/15 16:52:15;;;;;;;3.33;1.07;;;;;;;;;;10328711;28;20058;-68
2023/10/15 16:57:19;;;;;;;4.00;1.20;;;;;;;;;;10332416;28;20048;-71
2023/10/15 17:02:21;;;;;;;4.68;1.55;;;;;;;;;;10338171;28;20260;-69
2023/10/15 17:07:25;;;;;;;2.67;1.02;;;;;;;;;;10344879;28;21947;-69
2023/10/15 17:12:29;;;;;;;4.95;1.60;;;;;;;;;;10333757;28;20461;-68
2023/10/15 17:17:32;;;;;;;;;;;;;;;;;;10331073;28;20137;-70
2023/10/15 17:22:36;;;;;;;6.22;1.52;;;;;;;;;;10331178;28;20018;-70
2023/10/15 17:27:38;;;;;;;;;;;;;;;;;;10329184;28;20041;-69
2023/10/15 17:32:42;;;;;;;4.57;1.35;;;;;;;;;;10327472;28;19961;-70
2023/10/15 17:37:45;;;;;;;3.05;1.45;;;;;;;;;;10327694;28;20046;-69
2023/10/15 17:42:49;;;;;;;;;;;;;;;;;;10330737;28;20049;-69
2023/10/15 17:47:53;;;;;;;4.30;1.60;;;;;;;;;;10329525;28;19947;-68
2023/10/15 17:52:56;;;;;;;6.03;1.83;;;;;;;;;;10329765;28;20271;-69
2023/10/15 17:57:59;;;;;;;3.05;1.90;;;;;;;;;;10329780;28;20046;-70
2023/10/15 18:03:04;;;;;;;6.55;2.20;;;;;;;;;;10327558;28;20053;-70
2023/10/15 18:08:08;;;;;;;5.43;2.00;;;;;;;;;;10328803;28;20038;-69
2023/10/15 18:13:11;;;;;;;5.63;2.60;;;;;;;;;;10336449;28;20940;-69
2023/10/15 18:18:16;;;;;;;4.80;2.50;;;;;;;;;;10327205;28;20308;-69
2023/10/15 18:23:19;;;;;;;10.38;3.03;;;;;;;;;;10326300;28;20776;-70
2023/10/15 18:28:21;;;;;;;4.60;2.30;;;;;;;;;;10328970;28;20073;-77
2023/10/15 18:33:25;;;;;;;6.20;2.78;;;;;;;;;;10327445;28;20057;-73
2023/10/15 18:38:28;;;;;;;5.50;2.47;;;;;;;;;;10327418;28;20038;-69
2023/10/15 18:43:34;;;;;;;6.72;2.67;;;;;;;;;;10333980;28;20053;-69
2023/10/15 18:48:38;;;;;;;7.78;2.92;;;;;;;;;;10352456;28;20048;-69
2023/10/15 18:53:41;;;;;;;6.15;2.83;;;;;;;;;;10335108;28;20105;-71
2023/10/15 18:58:44;;;;;;;9.30;3.35;;;;;;;;;;10334848;28;20046;-71
2023/10/15 19:03:48;;;;;;;6.93;3.05;;;;;;;;;;10333093;28;20048;-70
2023/10/15 19:08:51;;;;;;;7.78;2.50;;;;;;;;;;10345632;28;20057;-70
2023/10/15 19:13:56;;;;;;;10.35;3.40;;;;;;;;;;10349697;28;20045;-70
2023/10/15 19:18:59;;;;;;;5.63;2.63;;;;;;;;;;10343350;28;21928;-70
2023/10/15 19:24:03;;;;;;;5.20;2.65;;;;;;;;;;10346565;28;20046;-70
2023/10/15 19:29:05;;;;;;;6.83;3.03;;;;;;;;;;10352396;28;20053;-71
2023/10/15 19:34:10;;;;;;;6.53;2.58;;;;;;;;;;10342472;28;20206;-70
2023/10/15 19:39:15;;;;;;;;;;;;;;;;;;10354676;28;20046;-70
2023/10/15 19:44:18;;;;;;;9.15;2.92;;;;;;;;;;10348313;28;19921;-72
2023/10/15 19:49:31;;;;;;;6.53;2.63;;;;;;;;;;10342288;28;20550;-71
2023/10/15 19:54:33;;;;;;;5.80;2.42;;;;;;;;;;10344011;28;20411;-69
2023/10/15 19:59:36;;;;;;;6.00;2.60;;;;;;;;;;10339766;28;20577;-70
2023/10/15 20:04:41;;;;;;;6.85;2.67;;;;;;;;;;10360307;28;20120;-69
2023/10/15 20:09:44;;;;;;;15.57;5.75;;;;;;;;;;10349256;28;20038;-69
2023/10/15 20:14:47;;;;;;;8.60;3.10;;;;;;;;;;10350766;28;20047;-71
2023/10/15 20:19:51;;;;;;;6.30;2.45;;;;;;;;;;10340301;28;20082;-71
2023/10/15 20:24:53;;;;;;;7.25;2.90;;;;;;;;;;10345012;28;20057;-68
2023/10/15 20:29:56;;;;;;;8.02;2.65;;;;;;;;;;10348574;28;20129;-71
2023/10/15 20:35:00;;;;;;;7.50;3.25;;;;;;;;;;10340926;28;20112;-70
2023/10/15 20:40:11;;;;;;;4.15;1.98;;;;;;;;;;10349305;28;20060;-71
2023/10/15 20:45:14;;;;;;;6.00;2.60;;;;;;;;;;10337711;28;20057;-71
2023/10/15 20:50:19;;;;;;;13.70;5.60;;;;;;;;;;10342365;28;20038;-71
2023/10/15 20:55:22;;;;;;;8.45;3.20;;;;;;;;;;10341517;28;20336;-69
2023/10/15 21:00:24;;;;;;;7.85;3.00;;;;;;;;;;10336259;28;20169;-70
2023/10/15 21:05:29;;;;;;;8.48;3.20;;;;;;;;;;10344705;28;20049;-70
2023/10/15 21:10:32;;;;;;;6.90;3.10;;;;;;;;;;10342599;28;20049;-70
2023/10/15 21:15:35;;;;;;;10.25;3.72;;;;;;;;;;10344891;28;20129;-68
2023/10/15 21:20:39;;;;;;;6.63;3.20;;;;;;;;;;10337834;28;20229;-70
2023/10/15 21:25:42;;;;;;;5.97;2.50;;;;;;;;;;10339720;28;20042;-71
2023/10/15 21:30:44;;;;;;;6.68;2.88;;;;;;;;;;10342377;28;20050;-70
2023/10/15 21:35:49;;;;;;;5.57;2.10;;;;;;;;;;10342725;28;20042;-70
2023/10/15 21:40:51;;;;;;;6.20;2.58;;;;;;;;;;10337159;28;20366;-71
2023/10/15 21:45:54;;;;;;;6.50;2.53;;;;;;;;;;10346755;28;20432;-69
2023/10/15 21:50:58;;;;;;;5.00;2.63;;;;;;;;;;10346358;28;20355;-69
2023/10/15 21:56:01;;;;;;;5.90;2.67;;;;;;;;;;10342331;28;20530;-69
2023/10/15 22:01:05;;;;;;;3.85;2.28;;;;;;;;;;10338802;28;20510;-70
2023/10/15 22:06:09;;;;;;;5.32;2.50;;;;;;;;;;10342887;28;20042;-70
2023/10/15 22:11:11;;;;;;;5.65;2.67;;;;;;;;;;10345198;28;20132;-69
2023/10/15 22:16:15;;;;;;;5.10;2.78;;;;;;;;;;10344601;28;20148;-68
2023/10/15 22:21:19;;;;;;;7.07;2.85;;;;;;;;;;10351462;28;20511;-68
2023/10/15 22:26:23;;;;;;;6.40;2.92;;;;;;;;;;10346172;28;20104;-71
2023/10/15 22:31:26;;;;;;;4.95;2.72;;;;;;;;;;10350485;28;20212;-68
2023/10/15 22:36:29;;;;;;;8.25;2.90;;;;;;;;;;10347428;28;20435;-69
2023/10/15 22:41:32;;;;;;;6.63;2.85;;;;;;;;;;10348251;28;20104;-68
2023/10/15 22:46:35;;;;;;;3.78;1.83;;;;;;;;;;10343305;28;20130;-67
2023/10/15 22:51:39;;;;;;;5.65;3.03;;;;;;;;;;10348431;28;20046;-69
2023/10/15 22:56:41;;;;;;;;;;;;;;;;;;10350936;28;20050;-67
2023/10/15 23:01:44;;;;;;;7.50;3.20;;;;;;;;;;10347025;28;19929;-70
2023/10/15 23:06:48;;;;;;;5.87;2.97;;;;;;;;;;10349783;28;20053;-68
2023/10/15 23:11:51;;;;;;;7.97;2.97;;;;;;;;;;10350119;28;20053;-70
2023/10/15 23:16:54;;;;;;;7.45;3.47;;;;;;;;;;10348885;28;20200;-68
2023/10/15 23:22:09;;;;;;;7.07;2.45;;;;;;;;;;10349042;28;20093;-69
2023/10/15 23:27:12;;;;;;;7.47;2.83;;;;;;;;;;10348812;28;20050;-69
2023/10/15 23:32:14;;;;;;;7.55;3.05;;;;;;;;;;10345878;28;20049;-68
2023/10/15 23:37:18;;;;;;;8.10;3.47;;;;;;;;;;10346764;28;20042;-72
2023/10/15 23:42:21;;;;;;;8.35;3.20;;;;;;;;;;10347785;28;20060;-68
2023/10/15 23:47:24;;;;;;;6.63;2.67;;;;;;;;;;10345183;28;20066;-68
2023/10/15 23:52:33;;;;;;;8.30;3.38;;;;;;;;;;10348638;28;20051;-68
2023/10/15 23:57:38;;;;;;;7.53;3.05;;;;;;;;;;10350089;28;20049;-67
